Terminal Aerodrome Forecast
Issued by NWS

Home | Current Version | Previous Version | Text Only | Print | Product List | Glossary On
Versions: 1 2 3 4 5 6 7 8 9 10 11 12
000
FTUS45 KABQ 020500 RRA
TAFSAF
TAF
KSAF 020541Z 0206/0306 23007KT P6SM FEW120 SCT200
     FM021600 24012G20KT P6SM FEW080
     FM022000 25025G35KT P6SM FEW090=

USA.gov is the U.S. government's official web portal to all federal, state and local government web resources and services.